Time;durP1;ratioP1;P1;durP2;ratioP2;P2;SDS_P1;SDS_P2;PMS_P1;PMS_P2;Temp;Humidity;BMP_temperature;BMP_pressure;BME280_temperature;BME280_humidity;BME280_pressure;Samples;Min_cycle;Max_cycle;Signal;HPM_P1;HPM_P2
2023/05/24 00:02:25;;;;;;;1.42;0.80;;;11.80;66.70;;;;;;5031646;28;20025;-66
2023/05/24 00:04:51;;;;;;;8.75;1.17;;;11.80;66.80;;;;;;5025638;28;20038;-66
2023/05/24 00:07:18;;;;;;;3.75;1.20;;;11.70;66.90;;;;;;5024902;28;20104;-66
2023/05/24 00:09:43;;;;;;;5.68;1.15;;;11.70;67.00;;;;;;5028324;28;20462;-66
2023/05/24 00:12:09;;;;;;;5.43;1.55;;;11.70;67.20;;;;;;5034524;28;20021;-66
2023/05/24 00:14:35;;;;;;;6.43;1.38;;;11.70;67.20;;;;;;5031185;28;20556;-66
2023/05/24 00:17:01;;;;;;;1.75;0.98;;;11.60;67.30;;;;;;5032405;28;20104;-66
2023/05/24 00:19:26;;;;;;;2.25;1.15;;;11.60;67.40;;;;;;5018983;28;20041;-69
2023/05/24 00:21:52;;;;;;;3.13;0.85;;;11.60;67.40;;;;;;5032747;28;20108;-68
2023/05/24 00:24:18;;;;;;;0.52;0.50;;;11.50;67.30;;;;;;5017973;28;20041;-68
2023/05/24 00:26:44;;;;;;;3.60;0.60;;;11.50;67.50;;;;;;5029544;28;20476;-68
2023/05/24 00:29:10;;;;;;;0.93;0.90;;;11.50;67.60;;;;;;5017017;28;20026;-68
2023/05/24 00:31:35;;;;;;;1.52;0.90;;;11.40;67.70;;;;;;5027634;28;20025;-64
2023/05/24 00:34:01;;;;;;;1.73;0.63;;;11.40;67.70;;;;;;5021424;28;20045;-65
2023/05/24 00:36:27;;;;;;;1.23;1.02;;;11.40;67.70;;;;;;5031753;28;20384;-67
2023/05/24 00:38:52;;;;;;;1.60;0.70;;;11.40;67.80;;;;;;5031060;28;20366;-70
2023/05/24 00:41:18;;;;;;;1.52;1.23;;;11.30;67.80;;;;;;5036216;28;20035;-65
2023/05/24 00:43:44;;;;;;;4.43;1.55;;;11.30;68.00;;;;;;5032416;28;20026;-65
2023/05/24 00:46:21;;;;;;;2.20;1.25;;;11.20;68.20;;;;;;5027247;28;20389;-68
2023/05/24 00:48:48;;;;;;;1.95;1.40;;;11.20;68.30;;;;;;5030761;28;20429;-67
2023/05/24 00:51:14;;;;;;;3.00;1.27;;;11.20;68.40;;;;;;5025766;28;20033;-69
2023/05/24 00:53:44;;;;;;;1.20;0.80;;;11.10;68.30;;;;;;5030408;28;20155;-69
2023/05/24 00:56:12;;;;;;;1.75;0.93;;;11.10;68.30;;;;;;5019467;28;20047;-67
2023/05/24 00:58:39;;;;;;;1.52;1.00;;;11.00;68.20;;;;;;5029319;28;20033;-69
2023/05/24 01:01:04;;;;;;;7.43;1.10;;;11.00;68.20;;;;;;5022174;28;20270;-69
2023/05/24 01:03:30;;;;;;;3.58;1.20;;;10.90;68.30;;;;;;5029392;28;20627;-69
2023/05/24 01:06:02;;;;;;;6.65;1.63;;;11.00;68.40;;;;;;5029404;28;20037;-67
2023/05/24 01:09:01;;;;;;;4.88;1.42;;;11.00;68.40;;;;;;5033424;28;20109;-65
2023/05/24 01:11:45;;;;;;;3.78;0.77;;;10.90;68.50;;;;;;5030247;28;20388;-67
2023/05/24 01:14:29;;;;;;;2.78;0.82;;;10.80;68.60;;;;;;5028702;28;20443;-65
2023/05/24 01:17:08;;;;;;;3.05;1.17;;;10.80;68.80;;;;;;5030420;28;20030;-65
2023/05/24 01:19:50;;;;;;;6.50;1.42;;;10.70;68.70;;;;;;5029200;28;20030;-64
2023/05/24 01:22:39;;;;;;;2.25;0.95;;;10.70;68.70;;;;;;5031455;28;20033;-67
2023/05/24 01:25:47;;;;;;;1.02;0.68;;;10.60;68.70;;;;;;5030640;28;20033;-67
2023/05/24 01:28:15;;;;;;;1.67;1.30;;;10.60;68.70;;;;;;5025579;28;20037;-67
2023/05/24 01:30:41;;;;;;;3.88;0.98;;;10.50;68.90;;;;;;5027556;28;20080;-67
2023/05/24 01:33:07;;;;;;;1.05;0.85;;;10.50;68.90;;;;;;5028109;28;20028;-65
2023/05/24 01:35:38;;;;;;;3.28;1.00;;;10.40;68.90;;;;;;5030484;28;20029;-65
2023/05/24 01:38:08;;;;;;;2.73;0.87;;;10.40;68.90;;;;;;5031339;28;20167;-67
2023/05/24 01:40:35;;;;;;;1.25;1.10;;;10.40;69.00;;;;;;5029524;28;20053;-67
2023/05/24 01:43:44;;;;;;;5.68;1.48;;;10.40;69.00;;;;;;5029446;28;20036;-68
2023/05/24 01:46:18;;;;;;;1.20;0.75;;;10.40;68.90;;;;;;5027719;28;20476;-67
2023/05/24 01:49:10;;;;;;;0.70;0.70;;;10.30;69.10;;;;;;5026480;28;20380;-68
2023/05/24 01:51:47;;;;;;;;;;;10.30;69.10;;;;;;5029363;28;20052;-68
2023/05/24 01:54:13;;;;;;;9.18;1.73;;;10.20;69.40;;;;;;5037859;28;19908;-67
2023/05/24 01:56:41;;;;;;;2.38;1.08;;;10.20;69.60;;;;;;5036585;28;20365;-64
2023/05/24 01:59:08;;;;;;;5.10;1.08;;;10.20;69.50;;;;;;5027316;28;20029;-67
2023/05/24 02:01:34;;;;;;;1.38;0.60;;;10.20;69.60;;;;;;5029247;28;20092;-67
2023/05/24 02:04:01;;;;;;;3.13;1.25;;;10.20;69.60;;;;;;5028239;28;20385;-65
2023/05/24 02:06:27;;;;;;;3.53;1.75;;;10.20;69.70;;;;;;5025548;28;20025;-65
2023/05/24 02:08:52;;;;;;;4.80;1.15;;;10.20;69.70;;;;;;5027591;28;20037;-65
2023/05/24 02:11:18;;;;;;;5.00;1.58;;;10.20;69.80;;;;;;5024304;28;20444;-65
2023/05/24 02:13:44;;;;;;;3.80;1.33;;;10.20;70.00;;;;;;5028849;28;20598;-66
2023/05/24 02:16:09;;;;;;;1.38;1.05;;;10.20;70.00;;;;;;5025545;28;20038;-65
2023/05/24 02:18:35;;;;;;;7.97;1.90;;;10.20;70.10;;;;;;5025254;28;20054;-65
2023/05/24 02:21:01;;;;;;;2.63;1.25;;;10.20;70.30;;;;;;5021525;28;20040;-65
2023/05/24 02:23:27;;;;;;;3.22;1.45;;;10.20;70.40;;;;;;5023169;28;20033;-68
2023/05/24 02:25:54;;;;;;;4.95;1.52;;;10.20;70.50;;;;;;5026156;28;20079;-68
2023/05/24 02:28:19;;;;;;;4.93;1.67;;;10.20;70.40;;;;;;5027844;28;20026;-68
2023/05/24 02:30:45;;;;;;;2.15;1.40;;;10.20;70.30;;;;;;5022166;28;20401;-68
2023/05/24 02:33:11;;;;;;;1.85;0.80;;;10.10;70.40;;;;;;5022555;28;20312;-68
2023/05/24 02:35:37;;;;;;;5.85;1.67;;;10.20;70.70;;;;;;5021130;28;20033;-68
2023/05/24 02:38:05;;;;;;;2.53;0.77;;;10.20;70.80;;;;;;5028170;28;20088;-68
2023/05/24 02:40:31;;;;;;;1.58;0.95;;;10.10;70.90;;;;;;5029719;28;20025;-68
2023/05/24 02:42:57;;;;;;;1.20;0.68;;;10.10;70.80;;;;;;5030979;28;20436;-65
2023/05/24 02:45:22;;;;;;;3.75;1.10;;;10.10;70.70;;;;;;5003194;28;20053;-68
2023/05/24 02:47:48;;;;;;;1.27;0.82;;;10.10;70.70;;;;;;5026948;28;20400;-68
2023/05/24 02:50:14;;;;;;;2.60;1.05;;;10.10;70.80;;;;;;5013505;28;20030;-68
2023/05/24 02:52:40;;;;;;;1.77;1.50;;;10.10;70.70;;;;;;5027861;28;20105;-68
2023/05/24 02:55:06;;;;;;;3.20;1.00;;;10.00;70.80;;;;;;5005655;28;20029;-68
2023/05/24 02:57:33;;;;;;;2.72;1.13;;;10.00;70.80;;;;;;5023558;28;20036;-65
2023/05/24 02:59:58;;;;;;;3.60;1.20;;;10.00;70.90;;;;;;5028234;28;20033;-65
2023/05/24 03:02:27;;;;;;;1.98;0.73;;;10.00;71.00;;;;;;5027803;28;20022;-65
2023/05/24 03:04:53;;;;;;;1.85;0.77;;;10.00;70.90;;;;;;5024400;28;20423;-69
2023/05/24 03:07:18;;;;;;;2.22;1.48;;;10.00;71.00;;;;;;5018645;28;20022;-68
2023/05/24 03:09:44;;;;;;;3.13;1.30;;;10.00;71.00;;;;;;5025609;28;20026;-68
2023/05/24 03:12:10;;;;;;;1.50;0.80;;;10.00;71.00;;;;;;5027817;28;20690;-68
2023/05/24 03:14:35;;;;;;;2.15;0.77;;;9.90;70.90;;;;;;5028985;28;20411;-68
2023/05/24 03:17:01;;;;;;;2.95;1.55;;;9.90;70.90;;;;;;5031337;28;20025;-68
2023/05/24 03:19:27;;;;;;;1.92;1.10;;;9.90;71.00;;;;;;5029763;28;20050;-67
2023/05/24 03:21:53;;;;;;;1.83;0.80;;;9.80;71.00;;;;;;5032652;28;20034;-67
2023/05/24 03:24:19;;;;;;;1.35;0.80;;;9.80;71.00;;;;;;5033852;28;20048;-67
2023/05/24 03:26:45;;;;;;;1.33;0.93;;;9.80;70.90;;;;;;5034455;28;20068;-64
2023/05/24 03:29:10;;;;;;;2.83;0.90;;;9.80;71.00;;;;;;5033861;28;20057;-64
2023/05/24 03:31:36;;;;;;;3.53;1.10;;;9.80;71.00;;;;;;5032323;28;20028;-65
2023/05/24 03:34:02;;;;;;;1.67;1.20;;;9.70;71.00;;;;;;5024598;28;20040;-65
2023/05/24 03:36:32;;;;;;;2.35;1.08;;;9.70;71.10;;;;;;5021225;28;20481;-65
2023/05/24 03:38:58;;;;;;;2.63;1.80;;;9.70;71.20;;;;;;5014286;28;20397;-64
2023/05/24 03:41:23;;;;;;;3.85;1.25;;;9.70;71.30;;;;;;5034600;28;20018;-65
2023/05/24 03:43:51;;;;;;;0.82;0.80;;;9.70;71.40;;;;;;5033847;28;20026;-67
2023/05/24 03:46:16;;;;;;;1.17;0.90;;;9.70;71.50;;;;;;5033554;28;20048;-68
2023/05/24 03:48:42;;;;;;;3.20;0.98;;;9.70;71.50;;;;;;5023857;28;20547;-67
2023/05/24 03:51:08;;;;;;;1.08;0.93;;;9.60;71.50;;;;;;5023272;28;20034;-67
2023/05/24 03:53:34;;;;;;;2.60;1.08;;;9.60;71.60;;;;;;5023077;28;20386;-67
2023/05/24 03:55:59;;;;;;;2.13;0.80;;;9.60;71.70;;;;;;5033947;28;20480;-70
2023/05/24 03:58:25;;;;;;;1.55;1.00;;;9.60;71.80;;;;;;5032007;28;20040;-67
2023/05/24 04:00:51;;;;;;;1.17;0.95;;;9.60;71.90;;;;;;5035539;28;20453;-67
2023/05/24 04:03:18;;;;;;;3.75;0.85;;;9.70;72.10;;;;;;5027846;28;20022;-65
2023/05/24 04:05:44;;;;;;;3.67;1.23;;;9.70;72.00;;;;;;5029607;28;20536;-70
2023/05/24 04:08:11;;;;;;;5.07;1.17;;;9.70;72.00;;;;;;5029624;28;20164;-65
2023/05/24 04:10:37;;;;;;;3.55;1.15;;;9.70;72.30;;;;;;5033894;28;20025;-67
2023/05/24 04:13:02;;;;;;;4.97;1.70;;;9.70;72.80;;;;;;5027780;28;20488;-67
2023/05/24 04:15:28;;;;;;;1.90;1.55;;;9.80;73.10;;;;;;5034153;28;20036;-68
2023/05/24 04:17:54;;;;;;;3.33;1.15;;;9.90;73.20;;;;;;5028130;28;20049;-67
2023/05/24 04:20:24;;;;;;;2.83;1.38;;;9.90;73.10;;;;;;5025057;28;20025;-68
2023/05/24 04:22:52;;;;;;;2.30;1.27;;;10.00;73.30;;;;;;5029905;28;20453;-67
2023/05/24 04:25:19;;;;;;;2.35;1.52;;;10.00;73.30;;;;;;5026297;28;20021;-68
2023/05/24 04:27:47;;;;;;;1.25;1.15;;;10.10;73.40;;;;;;5018244;28;20572;-67
2023/05/24 04:30:14;;;;;;;2.55;1.60;;;10.10;73.30;;;;;;5030249;28;20183;-68
2023/05/24 04:32:43;;;;;;;4.88;1.45;;;10.20;73.50;;;;;;5029171;28;20025;-70
2023/05/24 04:35:09;;;;;;;1.98;1.45;;;10.20;73.70;;;;;;5034717;28;20495;-68
2023/05/24 04:37:35;;;;;;;6.43;1.15;;;10.30;73.90;;;;;;5035348;28;20694;-65
2023/05/24 04:40:02;;;;;;;1.85;1.25;;;10.40;74.20;;;;;;4999877;28;20087;-65
2023/05/24 04:42:31;;;;;;;2.75;1.65;;;10.40;75.00;;;;;;5033827;28;20057;-66
2023/05/24 04:44:57;;;;;;;1.42;1.20;;;10.60;74.50;;;;;;5042142;28;20025;-65
2023/05/24 04:47:24;;;;;;;3.72;1.70;;;10.70;74.20;;;;;;5030767;28;20025;-65
2023/05/24 04:49:49;;;;;;;2.13;1.20;;;10.80;74.10;;;;;;5031858;28;20021;-65
2023/05/24 04:52:16;;;;;;;2.40;1.02;;;10.80;74.10;;;;;;5034712;28;20030;-65
2023/05/24 04:54:41;;;;;;;3.58;1.30;;;10.90;74.30;;;;;;5036393;28;20514;-65
2023/05/24 04:57:07;;;;;;;11.73;1.88;;;10.90;74.30;;;;;;5035460;28;20020;-68
2023/05/24 04:59:33;;;;;;;3.92;1.13;;;11.00;74.40;;;;;;5031933;28;20041;-68
2023/05/24 05:01:59;;;;;;;5.13;2.28;;;11.00;74.30;;;;;;5041478;28;20447;-68
2023/05/24 05:04:24;;;;;;;4.82;1.23;;;11.10;74.40;;;;;;5033820;28;20032;-66
2023/05/24 05:06:51;;;;;;;2.53;1.40;;;11.20;74.50;;;;;;5033117;28;20033;-66
2023/05/24 05:09:17;;;;;;;5.93;2.78;;;11.20;74.20;;;;;;5031876;28;20032;-68
2023/05/24 05:11:44;;;;;;;3.70;1.35;;;11.20;74.70;;;;;;5034330;28;20030;-68
2023/05/24 05:14:10;;;;;;;1.10;1.00;;;11.20;74.60;;;;;;5035520;28;20567;-68
2023/05/24 05:16:37;;;;;;;2.08;1.30;;;11.30;74.70;;;;;;5034466;28;20033;-67
2023/05/24 05:19:03;;;;;;;1.88;1.55;;;11.40;74.40;;;;;;5031440;28;20036;-66
2023/05/24 05:21:31;;;;;;;4.32;1.17;;;11.50;74.40;;;;;;5034707;28;20546;-66
2023/05/24 05:24:01;;;;;;;1.65;0.93;;;11.50;74.20;;;;;;5030873;28;20029;-66
2023/05/24 05:26:27;;;;;;;10.77;2.53;;;11.60;74.10;;;;;;5036948;28;20037;-68
2023/05/24 05:28:55;;;;;;;2.22;1.27;;;11.60;74.40;;;;;;5032292;28;20033;-68
2023/05/24 05:31:21;;;;;;;1.38;1.20;;;11.60;74.40;;;;;;5030809;28;20033;-68
2023/05/24 05:33:47;;;;;;;4.32;1.20;;;11.70;74.30;;;;;;5026615;28;20119;-66
2023/05/24 05:36:13;;;;;;;3.13;1.77;;;11.70;74.30;;;;;;5037700;28;20037;-66
2023/05/24 05:38:39;;;;;;;5.35;1.33;;;11.80;74.40;;;;;;5031600;28;20421;-68
2023/05/24 05:41:04;;;;;;;7.57;2.03;;;11.80;74.30;;;;;;5033734;28;20478;-66
2023/05/24 05:43:30;;;;;;;7.47;1.98;;;11.90;74.30;;;;;;5030006;28;20389;-68
2023/05/24 05:45:56;;;;;;;3.60;2.20;;;11.90;74.20;;;;;;5010315;28;20384;-66
2023/05/24 05:48:22;;;;;;;1.85;1.30;;;12.00;74.20;;;;;;5031417;28;20473;-68
2023/05/24 05:50:47;;;;;;;6.45;1.42;;;12.00;74.20;;;;;;5029864;28;20029;-68
2023/05/24 05:53:15;;;;;;;2.38;1.30;;;12.10;74.10;;;;;;5030287;28;20022;-66
2023/05/24 05:55:41;;;;;;;5.15;1.33;;;12.10;74.00;;;;;;5027578;28;20037;-66
2023/05/24 05:58:06;;;;;;;3.28;1.73;;;12.20;73.90;;;;;;5014164;28;20503;-69
2023/05/24 06:00:32;;;;;;;5.72;2.00;;;12.20;73.80;;;;;;5028156;28;20076;-65
2023/05/24 06:02:58;;;;;;;1.83;1.50;;;12.20;73.80;;;;;;5018122;28;20084;-66
2023/05/24 06:05:23;;;;;;;3.83;1.25;;;12.30;73.80;;;;;;5038222;28;20054;-68
2023/05/24 06:07:49;;;;;;;8.35;1.83;;;12.40;73.90;;;;;;5039524;28;20030;-69
2023/05/24 06:10:15;;;;;;;5.45;1.90;;;12.50;73.70;;;;;;5031617;28;20018;-66
2023/05/24 06:12:40;;;;;;;5.60;1.63;;;12.60;73.60;;;;;;5029138;28;20026;-66
2023/05/24 06:15:07;;;;;;;2.38;1.60;;;12.70;73.40;;;;;;5027353;28;20171;-67
2023/05/24 06:17:33;;;;;;;4.15;1.85;;;12.70;73.50;;;;;;5028620;28;20094;-68
2023/05/24 06:19:59;;;;;;;2.80;1.27;;;12.70;73.40;;;;;;5033169;28;20047;-69
2023/05/24 06:22:26;;;;;;;3.30;1.58;;;12.70;73.30;;;;;;5030282;28;20104;-66
2023/05/24 06:24:52;;;;;;;1.25;1.15;;;12.80;73.30;;;;;;5025603;28;20045;-66
2023/05/24 06:27:18;;;;;;;2.90;1.23;;;12.90;73.40;;;;;;5029587;28;20029;-66
2023/05/24 06:29:44;;;;;;;4.53;1.50;;;13.00;73.10;;;;;;5032248;28;20032;-66
2023/05/24 06:32:10;;;;;;;2.85;1.20;;;13.20;72.90;;;;;;5027807;28;20032;-66
2023/05/24 06:34:36;;;;;;;2.67;1.23;;;13.30;72.70;;;;;;5026237;28;20033;-66
2023/05/24 06:37:02;;;;;;;5.78;1.55;;;13.40;72.40;;;;;;5010256;28;20033;-69
2023/05/24 06:39:28;;;;;;;2.10;1.42;;;13.50;72.10;;;;;;5031646;28;20021;-66
2023/05/24 06:41:54;;;;;;;1.23;1.02;;;13.40;72.10;;;;;;5030584;28;20108;-69
2023/05/24 06:44:22;;;;;;;1.33;1.17;;;13.40;72.20;;;;;;5032376;28;20025;-67
2023/05/24 06:46:47;;;;;;;2.83;1.17;;;13.40;72.30;;;;;;5023191;28;20040;-66
2023/05/24 06:49:13;;;;;;;1.55;1.05;;;13.40;72.40;;;;;;5026492;28;20442;-65
2023/05/24 06:51:39;;;;;;;3.60;1.20;;;13.40;72.40;;;;;;5019103;28;20057;-65
2023/05/24 06:54:05;;;;;;;1.73;1.15;;;13.50;72.30;;;;;;5008792;28;20030;-66
2023/05/24 06:56:31;;;;;;;4.15;1.60;;;13.50;72.50;;;;;;5028140;28;20448;-70
2023/05/24 06:58:58;;;;;;;1.65;1.48;;;13.50;73.00;;;;;;5028501;28;20322;-71
2023/05/24 07:01:23;;;;;;;2.75;1.25;;;13.60;72.50;;;;;;5021972;28;20049;-65
2023/05/24 07:03:49;;;;;;;3.72;1.33;;;13.60;72.40;;;;;;5022107;28;20054;-66
2023/05/24 07:06:17;;;;;;;3.50;1.23;;;13.70;72.40;;;;;;5001187;28;20025;-69
2023/05/24 07:08:42;;;;;;;5.80;1.98;;;13.70;72.10;;;;;;5022804;28;20037;-65
2023/05/24 07:11:08;;;;;;;4.20;1.60;;;13.80;72.00;;;;;;5030927;28;20029;-66
2023/05/24 07:13:34;;;;;;;1.35;1.10;;;13.80;72.00;;;;;;5029774;28;20026;-69
2023/05/24 07:16:00;;;;;;;4.32;1.77;;;13.70;72.00;;;;;;5031278;28;20048;-69
2023/05/24 07:18:25;;;;;;;2.03;1.58;;;13.80;72.00;;;;;;5031396;28;20518;-69
2023/05/24 07:20:51;;;;;;;6.30;1.52;;;13.80;72.00;;;;;;5025780;28;20408;-66
2023/05/24 07:23:17;;;;;;;3.45;1.23;;;13.80;72.00;;;;;;5028767;28;20496;-66
2023/05/24 07:25:42;;;;;;;4.97;1.60;;;13.80;71.80;;;;;;5027791;28;21194;-68
2023/05/24 07:28:08;;;;;;;2.30;1.15;;;13.80;71.90;;;;;;5026068;28;20105;-66
2023/05/24 07:30:34;;;;;;;5.90;1.42;;;13.90;71.90;;;;;;5022321;28;20103;-66
2023/05/24 07:33:00;;;;;;;3.78;1.42;;;14.00;71.90;;;;;;5031681;28;20026;-66
2023/05/24 07:35:28;;;;;;;3.38;1.60;;;14.20;71.50;;;;;;5030621;28;20025;-69
2023/05/24 07:37:53;;;;;;;1.88;1.15;;;14.30;71.30;;;;;;5020040;28;20480;-69
2023/05/24 07:40:20;;;;;;;4.25;1.38;;;14.30;71.10;;;;;;5030417;28;20075;-66
2023/05/24 07:42:46;;;;;;;2.00;1.13;;;14.40;71.10;;;;;;5031603;28;20507;-66
2023/05/24 07:45:12;;;;;;;3.22;1.17;;;14.40;71.00;;;;;;5040172;28;20037;-66
2023/05/24 07:47:38;;;;;;;1.50;1.10;;;14.40;71.00;;;;;;5031031;28;20017;-69
2023/05/24 07:50:04;;;;;;;2.60;1.10;;;14.40;71.00;;;;;;5031049;28;20029;-69
2023/05/24 07:52:30;;;;;;;3.38;1.20;;;14.40;70.80;;;;;;5043541;28;20021;-66
2023/05/24 07:54:56;;;;;;;5.20;1.35;;;14.50;70.80;;;;;;5036555;28;20017;-66
2023/05/24 07:57:21;;;;;;;1.20;0.93;;;14.50;70.60;;;;;;5030168;28;20068;-65
2023/05/24 07:59:47;;;;;;;2.25;1.30;;;14.70;70.50;;;;;;5035403;28;20461;-69
2023/05/24 08:02:14;;;;;;;2.70;1.17;;;14.80;70.10;;;;;;5026224;28;20038;-68
2023/05/24 08:04:40;;;;;;;2.70;0.77;;;15.00;69.70;;;;;;5027458;28;20056;-69
2023/05/24 08:07:06;;;;;;;2.20;1.45;;;15.20;69.40;;;;;;5023893;28;20025;-69
2023/05/24 08:09:37;;;;;;;4.15;1.17;;;15.30;69.30;;;;;;5035157;28;20044;-68
2023/05/24 08:12:04;;;;;;;4.00;1.00;;;15.40;69.10;;;;;;5031550;28;20056;-66
2023/05/24 08:14:30;;;;;;;5.82;1.45;;;15.60;68.10;;;;;;5033056;28;20117;-66
2023/05/24 08:16:55;;;;;;;3.15;1.08;;;15.60;67.70;;;;;;5030720;28;20100;-66
2023/05/24 08:19:22;;;;;;;6.28;1.00;;;15.70;67.60;;;;;;5031700;28;20045;-67
2023/05/24 08:21:48;;;;;;;4.97;0.98;;;15.90;67.20;;;;;;5031747;28;20036;-66
2023/05/24 08:24:13;;;;;;;1.05;0.88;;;16.10;66.60;;;;;;5027124;28;20087;-66
2023/05/24 08:26:39;;;;;;;8.57;1.48;;;16.20;66.60;;;;;;5028739;28;20041;-66
2023/05/24 08:29:05;;;;;;;1.92;1.17;;;16.30;66.30;;;;;;5028104;28;20034;-65
2023/05/24 08:31:32;;;;;;;2.50;1.08;;;16.40;66.10;;;;;;5031351;28;20618;-65
2023/05/24 08:33:58;;;;;;;2.50;1.02;;;16.50;65.80;;;;;;5025145;28;20113;-65
2023/05/24 08:36:24;;;;;;;0.70;0.70;;;16.70;65.30;;;;;;5036237;28;20025;-66
2023/05/24 08:38:49;;;;;;;1.48;0.70;;;16.90;64.90;;;;;;5032073;28;20036;-69
2023/05/24 08:41:15;;;;;;;4.80;0.80;;;17.10;64.30;;;;;;5024792;28;20056;-69
2023/05/24 08:43:42;;;;;;;0.75;0.68;;;17.20;62.70;;;;;;5028602;28;20387;-66
2023/05/24 08:46:09;;;;;;;0.73;0.60;;;17.20;62.80;;;;;;5027681;28;20021;-65
2023/05/24 08:48:44;;;;;;;1.90;0.82;;;17.30;62.80;;;;;;5022691;28;20345;-69
2023/05/24 08:51:11;;;;;;;3.72;0.80;;;17.40;62.30;;;;;;5029354;28;20018;-69
2023/05/24 08:53:38;;;;;;;1.98;1.10;;;17.40;62.30;;;;;;5033759;28;20025;-69
2023/05/24 08:56:05;;;;;;;1.98;0.85;;;17.60;62.10;;;;;;5030374;28;20111;-69
2023/05/24 08:58:31;;;;;;;2.83;0.77;;;17.60;61.80;;;;;;5030618;28;20487;-69
2023/05/24 09:00:58;;;;;;;1.10;0.70;;;17.60;61.70;;;;;;5025585;28;20029;-69
2023/05/24 09:03:25;;;;;;;2.88;0.65;;;17.50;60.80;;;;;;5029959;28;20021;-65
2023/05/24 09:05:51;;;;;;;1.70;1.23;;;17.30;61.10;;;;;;5028377;28;20044;-70
2023/05/24 09:08:19;;;;;;;2.78;1.40;;;17.20;61.20;;;;;;5032516;28;20508;-68
2023/05/24 09:10:46;;;;;;;1.52;0.90;;;17.20;61.30;;;;;;5025298;28;20041;-69
2023/05/24 09:13:14;;;;;;;3.80;0.63;;;17.20;61.50;;;;;;5026252;28;20025;-68
2023/05/24 09:15:40;;;;;;;3.33;0.95;;;17.20;61.20;;;;;;5021930;28;20068;-68
2023/05/24 09:18:06;;;;;;;1.23;0.80;;;17.10;61.10;;;;;;5018734;28;20064;-68
2023/05/24 09:20:31;;;;;;;0.40;0.40;;;17.00;61.20;;;;;;5023432;28;20045;-69
2023/05/24 09:23:00;;;;;;;0.88;0.80;;;17.00;61.10;;;;;;5029256;28;20026;-69
2023/05/24 09:25:28;;;;;;;2.00;0.82;;;16.90;61.20;;;;;;5018566;28;20025;-68
2023/05/24 09:27:55;;;;;;;4.57;1.33;;;16.90;61.00;;;;;;5029425;28;20025;-66
2023/05/24 09:30:21;;;;;;;0.50;0.50;;;16.90;60.40;;;;;;5025489;28;20033;-68
2023/05/24 09:32:57;;;;;;;1.05;0.60;;;16.90;60.40;;;;;;5027228;28;20021;-68
2023/05/24 09:35:23;;;;;;;1.52;0.52;;;16.90;60.30;;;;;;5025355;28;20072;-68
2023/05/24 09:37:49;;;;;;;1.98;0.80;;;17.00;60.50;;;;;;5024609;28;20140;-68
2023/05/24 09:40:19;;;;;;;5.07;1.15;;;17.10;60.50;;;;;;5011374;28;20041;-68
2023/05/24 09:42:45;;;;;;;0.60;0.60;;;17.10;60.20;;;;;;5012757;28;20048;-69
2023/05/24 09:45:11;;;;;;;1.05;0.80;;;17.20;60.30;;;;;;5028171;28;20033;-69
2023/05/24 09:47:39;;;;;;;1.00;0.55;;;17.30;60.30;;;;;;5027590;28;20072;-66
2023/05/24 09:50:18;;;;;;;1.42;0.82;;;17.30;60.20;;;;;;5027088;28;20461;-68
2023/05/24 09:52:44;;;;;;;0.85;0.70;;;17.30;60.00;;;;;;5028983;28;20519;-69
2023/05/24 09:55:12;;;;;;;1.90;0.80;;;17.40;60.10;;;;;;5033751;28;20761;-69
2023/05/24 09:57:38;;;;;;;0.63;0.55;;;17.50;60.10;;;;;;5024982;28;20033;-69
2023/05/24 10:00:16;;;;;;;4.43;1.05;;;17.60;60.00;;;;;;5023371;28;20104;-69
2023/05/24 10:02:45;;;;;;;2.45;1.52;;;17.60;59.80;;;;;;5013125;28;20034;-67
2023/05/24 10:05:12;;;;;;;4.53;1.15;;;17.60;59.40;;;;;;5024080;28;20440;-66
2023/05/24 10:07:40;;;;;;;0.55;0.55;;;17.60;59.50;;;;;;5023960;28;20468;-66
2023/05/24 10:10:06;;;;;;;2.17;0.90;;;17.50;59.60;;;;;;5030168;28;20033;-69
2023/05/24 10:12:34;;;;;;;1.73;1.00;;;17.40;59.40;;;;;;5024196;28;20034;-69
2023/05/24 10:15:01;;;;;;;1.00;0.65;;;17.30;59.60;;;;;;5020098;28;20034;-66
2023/05/24 10:17:27;;;;;;;4.15;1.48;;;17.10;59.90;;;;;;5025791;28;20049;-66
2023/05/24 10:19:53;;;;;;;3.45;0.70;;;17.00;59.40;;;;;;5023762;28;20073;-66
2023/05/24 10:22:22;;;;;;;2.95;0.90;;;16.90;59.90;;;;;;5010563;28;20037;-69
2023/05/24 10:24:52;;;;;;;1.08;0.68;;;16.80;59.80;;;;;;5024945;28;20068;-69
2023/05/24 10:27:29;;;;;;;1.30;0.82;;;16.70;60.00;;;;;;5039735;28;20361;-69
2023/05/24 10:30:04;;;;;;;2.47;0.88;;;16.70;60.10;;;;;;5040286;28;20079;-66
2023/05/24 10:32:34;;;;;;;3.65;1.15;;;16.70;60.10;;;;;;5030317;28;20061;-66
2023/05/24 10:35:01;;;;;;;0.90;0.68;;;16.70;60.10;;;;;;5021067;28;20053;-69
2023/05/24 10:37:27;;;;;;;5.93;2.00;;;16.80;60.20;;;;;;5030705;28;20437;-66
2023/05/24 10:39:53;;;;;;;3.30;1.08;;;16.90;60.10;;;;;;5031576;28;20112;-66
2023/05/24 10:42:18;;;;;;;2.05;0.65;;;17.00;59.90;;;;;;5035520;28;20022;-66
2023/05/24 10:44:44;;;;;;;2.50;0.68;;;17.20;59.70;;;;;;5030372;28;20029;-67
2023/05/24 10:47:12;;;;;;;2.10;0.70;;;17.40;59.10;;;;;;5024479;28;20037;-66
2023/05/24 10:49:53;;;;;;;1.30;0.60;;;17.60;58.90;;;;;;5028590;28;20377;-67
2023/05/24 10:52:19;;;;;;;3.25;0.57;;;17.90;58.40;;;;;;5033617;28;20022;-69
2023/05/24 10:55:08;;;;;;;0.77;0.50;;;18.20;58.00;;;;;;5035281;28;20040;-70
2023/05/24 10:57:35;;;;;;;2.13;0.60;;;18.70;57.00;;;;;;5028742;28;20052;-66
2023/05/24 11:00:20;;;;;;;3.00;1.00;;;19.10;56.20;;;;;;5035399;28;20124;-69
2023/05/24 11:02:49;;;;;;;1.85;0.95;;;19.40;54.30;;;;;;5030239;28;20022;-70
2023/05/24 11:05:15;;;;;;;1.05;0.90;;;19.60;54.60;;;;;;5026549;28;20025;-66
2023/05/24 11:07:41;;;;;;;1.50;0.93;;;19.90;53.80;;;;;;5034055;28;20037;-66
2023/05/24 11:10:15;;;;;;;1.38;0.70;;;20.20;53.50;;;;;;5026787;28;20427;-69
2023/05/24 11:12:42;;;;;;;1.17;0.80;;;20.20;52.80;;;;;;5024725;28;20026;-66
2023/05/24 11:15:10;;;;;;;2.72;0.70;;;20.20;53.00;;;;;;5032090;28;20376;-67
2023/05/24 11:18:16;;;;;;;1.85;0.68;;;20.40;53.20;;;;;;5024923;28;20068;-66
2023/05/24 11:20:45;;;;;;;1.42;0.75;;;20.50;52.20;;;;;;4988382;28;20120;-67
2023/05/24 11:23:13;;;;;;;1.27;0.77;;;20.40;51.70;;;;;;4991859;28;20040;-69
2023/05/24 11:25:38;;;;;;;1.27;0.60;;;20.30;52.20;;;;;;5030638;28;20053;-69
2023/05/24 11:28:09;;;;;;;0.70;0.70;;;20.40;52.50;;;;;;5033512;28;20026;-69
2023/05/24 11:30:46;;;;;;;0.65;0.47;;;20.50;52.20;;;;;;5032130;28;20025;-67
2023/05/24 11:33:21;;;;;;;2.90;1.00;;;20.70;52.20;;;;;;5028009;28;20026;-67
2023/05/24 11:35:51;;;;;;;0.93;0.63;;;20.70;52.40;;;;;;5024238;28;20029;-69
2023/05/24 11:38:19;;;;;;;1.25;0.70;;;20.60;52.50;;;;;;5026932;28;20071;-67
2023/05/24 11:40:47;;;;;;;0.57;0.45;;;20.40;52.30;;;;;;5026827;28;20550;-67
2023/05/24 11:43:17;;;;;;;1.10;0.60;;;20.20;52.50;;;;;;5024849;28;20088;-66
2023/05/24 11:45:48;;;;;;;0.80;0.77;;;20.00;53.00;;;;;;5025303;28;20075;-69
2023/05/24 11:48:15;;;;;;;6.70;1.05;;;19.90;52.80;;;;;;5030454;28;20053;-69
2023/05/24 11:50:42;;;;;;;1.52;0.65;;;19.80;52.90;;;;;;5030980;28;20083;-66
2023/05/24 11:53:12;;;;;;;1.58;0.80;;;19.80;52.60;;;;;;5025265;28;20049;-69
2023/05/24 11:55:41;;;;;;;2.72;0.70;;;19.90;53.00;;;;;;5028201;28;20040;-69
2023/05/24 11:58:19;;;;;;;1.05;0.80;;;19.90;52.60;;;;;;5028914;28;20100;-69
2023/05/24 12:00:46;;;;;;;1.00;0.90;;;20.10;52.40;;;;;;5031456;28;20381;-70
2023/05/24 12:03:12;;;;;;;1.75;0.70;;;20.20;51.70;;;;;;5030581;28;20856;-66
2023/05/24 12:05:38;;;;;;;6.57;1.17;;;20.20;51.50;;;;;;5029275;28;20057;-65
2023/05/24 12:08:06;;;;;;;2.47;0.95;;;20.20;51.10;;;;;;5030634;28;20491;-69
2023/05/24 12:10:41;;;;;;;1.58;0.70;;;20.30;51.20;;;;;;5023423;28;20026;-69
2023/05/24 12:13:22;;;;;;;0.80;0.80;;;20.30;51.00;;;;;;5026739;28;20379;-66
2023/05/24 12:15:53;;;;;;;3.30;1.03;;;20.30;50.80;;;;;;5031653;28;20052;-69
2023/05/24 12:18:20;;;;;;;1.65;0.80;;;20.50;51.00;;;;;;5038861;28;20043;-66
2023/05/24 12:20:49;;;;;;;3.80;1.10;;;20.40;51.10;;;;;;5034296;28;20045;-69
2023/05/24 12:23:17;;;;;;;1.45;0.82;;;20.30;51.40;;;;;;5034587;28;20104;-66
2023/05/24 12:25:43;;;;;;;7.75;1.58;;;20.20;51.60;;;;;;5039556;28;20534;-66
2023/05/24 12:28:09;;;;;;;1.27;0.85;;;19.90;51.50;;;;;;5031949;28;20029;-66
2023/05/24 12:30:36;;;;;;;1.58;1.13;;;19.90;52.00;;;;;;5021732;28;20022;-69
2023/05/24 12:33:02;;;;;;;1.55;0.70;;;19.90;52.40;;;;;;5035817;28;20487;-66
2023/05/24 12:35:28;;;;;;;1.13;1.10;;;20.00;52.20;;;;;;5027604;28;20033;-66
2023/05/24 12:38:00;;;;;;;1.55;1.13;;;20.20;52.20;;;;;;5026050;28;20049;-66
2023/05/24 12:40:25;;;;;;;2.33;0.90;;;20.60;51.70;;;;;;5021754;28;20033;-66
2023/05/24 12:42:54;;;;;;;0.77;0.77;;;21.10;51.10;;;;;;5034946;28;20043;-70
2023/05/24 12:45:23;;;;;;;0.77;0.77;;;21.40;50.50;;;;;;5029618;28;20047;-69
2023/05/24 12:47:53;;;;;;;2.58;1.15;;;21.70;49.60;;;;;;5029402;28;20471;-69
2023/05/24 12:50:20;;;;;;;1.02;0.57;;;21.60;48.80;;;;;;5028481;28;20092;-69
2023/05/24 12:52:47;;;;;;;2.17;1.08;;;21.50;49.10;;;;;;5024709;28;20120;-69